sensor_id;sensor_type;location;lat;lon;timestamp;P1;durP1;ratioP1;P2;durP2;ratioP2
10162;SDS011;5123;52.556;13.384;2023-06-22T00:02:06;14.60;;;13.30;;
10162;SDS011;5123;52.556;13.384;2023-06-22T00:04:39;14.70;;;13.30;;
10162;SDS011;5123;52.556;13.384;2023-06-22T00:07:14;15.10;;;13.60;;
10162;SDS011;5123;52.556;13.384;2023-06-22T00:09:46;15.17;;;13.77;;
10162;SDS011;5123;52.556;13.384;2023-06-22T00:12:19;14.43;;;13.03;;
10162;SDS011;5123;52.556;13.384;2023-06-22T00:14:52;15.07;;;13.23;;
10162;SDS011;5123;52.556;13.384;2023-06-22T00:17:24;15.20;;;13.80;;
10162;SDS011;5123;52.556;13.384;2023-06-22T00:19:59;14.43;;;13.03;;
10162;SDS011;5123;52.556;13.384;2023-06-22T00:22:34;14.83;;;13.43;;
10162;SDS011;5123;52.556;13.384;2023-06-22T00:25:10;15.23;;;13.73;;
10162;SDS011;5123;52.556;13.384;2023-06-22T00:27:42;15.17;;;13.77;;
10162;SDS011;5123;52.556;13.384;2023-06-22T00:30:17;14.17;;;12.87;;
10162;SDS011;5123;52.556;13.384;2023-06-22T00:32:50;15.80;;;14.20;;
10162;SDS011;5123;52.556;13.384;2023-06-22T00:35:26;13.60;;;12.30;;
10162;SDS011;5123;52.556;13.384;2023-06-22T00:38:01;16.03;;;13.10;;
10162;SDS011;5123;52.556;13.384;2023-06-22T00:40:36;14.53;;;13.10;;
10162;SDS011;5123;52.556;13.384;2023-06-22T00:43:11;15.03;;;13.57;;
10162;SDS011;5123;52.556;13.384;2023-06-22T00:45:46;14.33;;;12.83;;
10162;SDS011;5123;52.556;13.384;2023-06-22T00:48:19;15.53;;;14.03;;
10162;SDS011;5123;52.556;13.384;2023-06-22T00:50:52;14.97;;;13.47;;
10162;SDS011;5123;52.556;13.384;2023-06-22T00:53:26;14.40;;;12.90;;
10162;SDS011;5123;52.556;13.384;2023-06-22T00:55:59;14.90;;;13.50;;
10162;SDS011;5123;52.556;13.384;2023-06-22T00:58:31;14.80;;;13.50;;
10162;SDS011;5123;52.556;13.384;2023-06-22T01:01:04;14.87;;;13.47;;
10162;SDS011;5123;52.556;13.384;2023-06-22T01:03:37;14.37;;;12.83;;
10162;SDS011;5123;52.556;13.384;2023-06-22T01:06:12;13.63;;;12.33;;
10162;SDS011;5123;52.556;13.384;2023-06-22T01:08:51;14.17;;;12.70;;
10162;SDS011;5123;52.556;13.384;2023-06-22T01:11:28;15.17;;;12.77;;
10162;SDS011;5123;52.556;13.384;2023-06-22T01:14:06;14.27;;;12.97;;
10162;SDS011;5123;52.556;13.384;2023-06-22T01:16:44;14.90;;;13.43;;
10162;SDS011;5123;52.556;13.384;2023-06-22T01:19:22;14.83;;;13.43;;
10162;SDS011;5123;52.556;13.384;2023-06-22T01:21:58;13.33;;;12.13;;
10162;SDS011;5123;52.556;13.384;2023-06-22T01:24:33;13.60;;;12.40;;
10162;SDS011;5123;52.556;13.384;2023-06-22T01:27:16;14.13;;;12.73;;
10162;SDS011;5123;52.556;13.384;2023-06-22T01:29:55;14.30;;;12.90;;
10162;SDS011;5123;52.556;13.384;2023-06-22T01:32:34;13.50;;;12.30;;
10162;SDS011;5123;52.556;13.384;2023-06-22T01:35:08;13.73;;;12.47;;
10162;SDS011;5123;52.556;13.384;2023-06-22T01:37:41;13.37;;;12.07;;
10162;SDS011;5123;52.556;13.384;2023-06-22T01:40:14;13.30;;;12.10;;
10162;SDS011;5123;52.556;13.384;2023-06-22T01:42:47;13.80;;;12.40;;
10162;SDS011;5123;52.556;13.384;2023-06-22T01:45:22;13.80;;;12.33;;
10162;SDS011;5123;52.556;13.384;2023-06-22T01:47:55;14.27;;;13.03;;
10162;SDS011;5123;52.556;13.384;2023-06-22T01:50:29;13.37;;;12.17;;
10162;SDS011;5123;52.556;13.384;2023-06-22T01:53:02;14.80;;;12.53;;
10162;SDS011;5123;52.556;13.384;2023-06-22T01:55:36;13.70;;;12.13;;
10162;SDS011;5123;52.556;13.384;2023-06-22T01:58:09;14.17;;;12.87;;
10162;SDS011;5123;52.556;13.384;2023-06-22T02:00:44;14.00;;;12.70;;
10162;SDS011;5123;52.556;13.384;2023-06-22T02:03:19;14.73;;;13.17;;
10162;SDS011;5123;52.556;13.384;2023-06-22T02:05:56;13.83;;;12.63;;
10162;SDS011;5123;52.556;13.384;2023-06-22T02:08:33;13.53;;;12.23;;
10162;SDS011;5123;52.556;13.384;2023-06-22T02:11:08;15.73;;;12.77;;
10162;SDS011;5123;52.556;13.384;2023-06-22T02:13:51;15.03;;;13.67;;
10162;SDS011;5123;52.556;13.384;2023-06-22T02:16:27;14.00;;;12.57;;
10162;SDS011;5123;52.556;13.384;2023-06-22T02:19:01;14.47;;;13.13;;
10162;SDS011;5123;52.556;13.384;2023-06-22T02:21:35;15.07;;;13.53;;
10162;SDS011;5123;52.556;13.384;2023-06-22T02:24:08;15.77;;;14.10;;
10162;SDS011;5123;52.556;13.384;2023-06-22T02:26:41;16.03;;;14.43;;
10162;SDS011;5123;52.556;13.384;2023-06-22T02:29:15;14.23;;;12.83;;
10162;SDS011;5123;52.556;13.384;2023-06-22T02:31:51;15.63;;;14.23;;
10162;SDS011;5123;52.556;13.384;2023-06-22T02:34:23;15.20;;;13.77;;
10162;SDS011;5123;52.556;13.384;2023-06-22T02:36:56;16.00;;;14.50;;
10162;SDS011;5123;52.556;13.384;2023-06-22T02:39:32;15.37;;;13.87;;
10162;SDS011;5123;52.556;13.384;2023-06-22T02:42:05;16.03;;;14.53;;
10162;SDS011;5123;52.556;13.384;2023-06-22T02:44:38;16.63;;;14.90;;
10162;SDS011;5123;52.556;13.384;2023-06-22T02:47:12;15.73;;;14.27;;
10162;SDS011;5123;52.556;13.384;2023-06-22T02:49:45;16.30;;;14.60;;
10162;SDS011;5123;52.556;13.384;2023-06-22T02:52:18;17.73;;;15.90;;
10162;SDS011;5123;52.556;13.384;2023-06-22T02:54:50;16.33;;;14.83;;
10162;SDS011;5123;52.556;13.384;2023-06-22T02:57:26;16.47;;;14.97;;
10162;SDS011;5123;52.556;13.384;2023-06-22T02:59:58;17.80;;;16.00;;
10162;SDS011;5123;52.556;13.384;2023-06-22T03:02:33;18.87;;;16.97;;
10162;SDS011;5123;52.556;13.384;2023-06-22T03:05:06;16.53;;;14.83;;
10162;SDS011;5123;52.556;13.384;2023-06-22T03:07:47;17.53;;;15.83;;
10162;SDS011;5123;52.556;13.384;2023-06-22T03:10:20;17.90;;;15.97;;
10162;SDS011;5123;52.556;13.384;2023-06-22T03:12:53;18.60;;;16.80;;
10162;SDS011;5123;52.556;13.384;2023-06-22T03:15:25;17.60;;;16.00;;
10162;SDS011;5123;52.556;13.384;2023-06-22T03:18:02;17.83;;;16.03;;
10162;SDS011;5123;52.556;13.384;2023-06-22T03:20:35;17.77;;;15.70;;
10162;SDS011;5123;52.556;13.384;2023-06-22T03:23:08;16.83;;;15.17;;
10162;SDS011;5123;52.556;13.384;2023-06-22T03:25:41;16.40;;;14.80;;
10162;SDS011;5123;52.556;13.384;2023-06-22T03:28:15;19.47;;;15.27;;
10162;SDS011;5123;52.556;13.384;2023-06-22T03:30:50;16.10;;;14.40;;
10162;SDS011;5123;52.556;13.384;2023-06-22T03:33:24;17.23;;;15.37;;
10162;SDS011;5123;52.556;13.384;2023-06-22T03:35:57;16.20;;;14.60;;
10162;SDS011;5123;52.556;13.384;2023-06-22T03:38:30;16.43;;;14.73;;
10162;SDS011;5123;52.556;13.384;2023-06-22T03:41:03;16.27;;;14.30;;
10162;SDS011;5123;52.556;13.384;2023-06-22T03:43:36;16.20;;;14.57;;
10162;SDS011;5123;52.556;13.384;2023-06-22T03:46:08;17.17;;;14.47;;
10162;SDS011;5123;52.556;13.384;2023-06-22T03:48:43;15.17;;;13.67;;
10162;SDS011;5123;52.556;13.384;2023-06-22T03:51:17;14.93;;;13.53;;
10162;SDS011;5123;52.556;13.384;2023-06-22T03:53:49;14.67;;;13.17;;
10162;SDS011;5123;52.556;13.384;2023-06-22T03:56:22;14.03;;;12.60;;
10162;SDS011;5123;52.556;13.384;2023-06-22T03:58:55;13.97;;;12.57;;
10162;SDS011;5123;52.556;13.384;2023-06-22T04:01:28;15.27;;;13.30;;
10162;SDS011;5123;52.556;13.384;2023-06-22T04:04:02;13.97;;;12.60;;
10162;SDS011;5123;52.556;13.384;2023-06-22T04:06:35;13.47;;;12.17;;
10162;SDS011;5123;52.556;13.384;2023-06-22T04:09:07;13.43;;;11.97;;
10162;SDS011;5123;52.556;13.384;2023-06-22T04:11:40;14.10;;;12.57;;
10162;SDS011;5123;52.556;13.384;2023-06-22T04:14:15;13.20;;;11.97;;
10162;SDS011;5123;52.556;13.384;2023-06-22T04:16:47;13.80;;;11.57;;
10162;SDS011;5123;52.556;13.384;2023-06-22T04:19:22;15.80;;;11.97;;
10162;SDS011;5123;52.556;13.384;2023-06-22T04:21:57;15.30;;;11.80;;
10162;SDS011;5123;52.556;13.384;2023-06-22T04:24:30;14.60;;;11.90;;
10162;SDS011;5123;52.556;13.384;2023-06-22T04:27:03;13.03;;;11.63;;
10162;SDS011;5123;52.556;13.384;2023-06-22T04:29:37;12.87;;;11.40;;
10162;SDS011;5123;52.556;13.384;2023-06-22T04:32:15;12.50;;;11.20;;
10162;SDS011;5123;52.556;13.384;2023-06-22T04:34:57;14.40;;;11.80;;
10162;SDS011;5123;52.556;13.384;2023-06-22T04:37:35;15.00;;;11.87;;
10162;SDS011;5123;52.556;13.384;2023-06-22T04:40:08;14.33;;;12.33;;
10162;SDS011;5123;52.556;13.384;2023-06-22T04:42:41;13.13;;;11.77;;
10162;SDS011;5123;52.556;13.384;2023-06-22T04:45:24;12.53;;;11.13;;
10162;SDS011;5123;52.556;13.384;2023-06-22T04:47:57;14.53;;;11.27;;
10162;SDS011;5123;52.556;13.384;2023-06-22T04:50:32;12.37;;;11.07;;
10162;SDS011;5123;52.556;13.384;2023-06-22T04:53:04;13.53;;;11.23;;
10162;SDS011;5123;52.556;13.384;2023-06-22T04:55:39;13.40;;;11.07;;
10162;SDS011;5123;52.556;13.384;2023-06-22T04:58:13;13.30;;;9.77;;
10162;SDS011;5123;52.556;13.384;2023-06-22T05:00:48;10.07;;;9.07;;
10162;SDS011;5123;52.556;13.384;2023-06-22T05:03:24;13.20;;;9.30;;
10162;SDS011;5123;52.556;13.384;2023-06-22T05:05:59;10.73;;;9.53;;
10162;SDS011;5123;52.556;13.384;2023-06-22T05:08:32;9.23;;;8.33;;
10162;SDS011;5123;52.556;13.384;2023-06-22T05:11:05;9.00;;;7.73;;
10162;SDS011;5123;52.556;13.384;2023-06-22T05:13:37;7.27;;;6.50;;
10162;SDS011;5123;52.556;13.384;2023-06-22T05:16:10;8.47;;;7.27;;
10162;SDS011;5123;52.556;13.384;2023-06-22T05:18:43;8.77;;;7.17;;
10162;SDS011;5123;52.556;13.384;2023-06-22T05:21:17;7.07;;;6.27;;
10162;SDS011;5123;52.556;13.384;2023-06-22T05:23:52;8.83;;;6.30;;
10162;SDS011;5123;52.556;13.384;2023-06-22T05:26:26;8.23;;;6.00;;
10162;SDS011;5123;52.556;13.384;2023-06-22T05:28:59;6.30;;;5.70;;
10162;SDS011;5123;52.556;13.384;2023-06-22T05:31:32;6.43;;;5.47;;
10162;SDS011;5123;52.556;13.384;2023-06-22T05:34:05;8.43;;;6.30;;
10162;SDS011;5123;52.556;13.384;2023-06-22T05:36:39;9.73;;;5.87;;
10162;SDS011;5123;52.556;13.384;2023-06-22T05:39:12;7.17;;;5.60;;
10162;SDS011;5123;52.556;13.384;2023-06-22T05:41:45;7.50;;;5.23;;
10162;SDS011;5123;52.556;13.384;2023-06-22T05:44:18;6.40;;;5.27;;
10162;SDS011;5123;52.556;13.384;2023-06-22T05:46:51;5.20;;;4.70;;
10162;SDS011;5123;52.556;13.384;2023-06-22T05:49:23;6.00;;;4.90;;
10162;SDS011;5123;52.556;13.384;2023-06-22T05:52:02;8.23;;;4.73;;
10162;SDS011;5123;52.556;13.384;2023-06-22T05:54:35;8.27;;;4.40;;
10162;SDS011;5123;52.556;13.384;2023-06-22T05:57:09;4.80;;;4.27;;
10162;SDS011;5123;52.556;13.384;2023-06-22T05:59:45;4.83;;;4.40;;
10162;SDS011;5123;52.556;13.384;2023-06-22T06:02:17;6.30;;;4.67;;
10162;SDS011;5123;52.556;13.384;2023-06-22T06:04:51;5.20;;;4.70;;
10162;SDS011;5123;52.556;13.384;2023-06-22T06:07:31;7.53;;;4.47;;
10162;SDS011;5123;52.556;13.384;2023-06-22T06:10:06;6.13;;;4.60;;
10162;SDS011;5123;52.556;13.384;2023-06-22T06:12:39;4.40;;;4.00;;
10162;SDS011;5123;52.556;13.384;2023-06-22T06:15:12;5.17;;;4.67;;
10162;SDS011;5123;52.556;13.384;2023-06-22T06:17:45;11.03;;;4.57;;
10162;SDS011;5123;52.556;13.384;2023-06-22T06:20:19;4.57;;;4.17;;
10162;SDS011;5123;52.556;13.384;2023-06-22T06:22:55;6.30;;;4.97;;
10162;SDS011;5123;52.556;13.384;2023-06-22T06:25:28;5.53;;;4.50;;
10162;SDS011;5123;52.556;13.384;2023-06-22T06:28:01;5.63;;;5.13;;
10162;SDS011;5123;52.556;13.384;2023-06-22T06:30:34;6.50;;;4.83;;
10162;SDS011;5123;52.556;13.384;2023-06-22T06:33:09;9.33;;;5.20;;
10162;SDS011;5123;52.556;13.384;2023-06-22T06:35:44;5.07;;;4.57;;
10162;SDS011;5123;52.556;13.384;2023-06-22T06:38:18;5.17;;;4.67;;
10162;SDS011;5123;52.556;13.384;2023-06-22T06:40:50;5.47;;;4.97;;
10162;SDS011;5123;52.556;13.384;2023-06-22T06:43:23;5.40;;;4.30;;
10162;SDS011;5123;52.556;13.384;2023-06-22T06:46:04;7.67;;;4.90;;
10162;SDS011;5123;52.556;13.384;2023-06-22T06:48:36;4.67;;;4.13;;
10162;SDS011;5123;52.556;13.384;2023-06-22T06:51:09;5.10;;;4.60;;
10162;SDS011;5123;52.556;13.384;2023-06-22T06:53:43;5.10;;;4.60;;
10162;SDS011;5123;52.556;13.384;2023-06-22T06:56:16;7.87;;;3.87;;
10162;SDS011;5123;52.556;13.384;2023-06-22T06:58:49;5.50;;;3.80;;
10162;SDS011;5123;52.556;13.384;2023-06-22T07:01:22;4.70;;;4.20;;
10162;SDS011;5123;52.556;13.384;2023-06-22T07:03:55;4.63;;;4.17;;
10162;SDS011;5123;52.556;13.384;2023-06-22T07:06:28;6.10;;;4.03;;
10162;SDS011;5123;52.556;13.384;2023-06-22T07:09:05;6.03;;;3.80;;
10162;SDS011;5123;52.556;13.384;2023-06-22T07:11:38;4.23;;;3.67;;
10162;SDS011;5123;52.556;13.384;2023-06-22T07:14:12;4.37;;;3.77;;
10162;SDS011;5123;52.556;13.384;2023-06-22T07:16:45;6.97;;;4.17;;
10162;SDS011;5123;52.556;13.384;2023-06-22T07:19:24;4.50;;;3.70;;
10162;SDS011;5123;52.556;13.384;2023-06-22T07:21:57;5.50;;;3.90;;
10162;SDS011;5123;52.556;13.384;2023-06-22T07:24:31;5.83;;;4.07;;
10162;SDS011;5123;52.556;13.384;2023-06-22T07:27:05;5.10;;;4.30;;
10162;SDS011;5123;52.556;13.384;2023-06-22T07:29:38;5.07;;;3.97;;
10162;SDS011;5123;52.556;13.384;2023-06-22T07:32:11;5.97;;;4.00;;
10162;SDS011;5123;52.556;13.384;2023-06-22T07:34:44;8.17;;;4.37;;
10162;SDS011;5123;52.556;13.384;2023-06-22T07:37:17;8.40;;;4.50;;
10162;SDS011;5123;52.556;13.384;2023-06-22T07:39:52;8.03;;;3.83;;
10162;SDS011;5123;52.556;13.384;2023-06-22T07:42:29;6.07;;;3.87;;
10162;SDS011;5123;52.556;13.384;2023-06-22T07:45:05;4.97;;;3.23;;
10162;SDS011;5123;52.556;13.384;2023-06-22T07:47:41;3.73;;;3.10;;
10162;SDS011;5123;52.556;13.384;2023-06-22T07:50:14;4.15;;;3.50;;
10162;SDS011;5123;52.556;13.384;2023-06-22T07:52:46;3.92;;;3.53;;
10162;SDS011;5123;52.556;13.384;2023-06-22T07:55:21;4.78;;;4.20;;
10162;SDS011;5123;52.556;13.384;2023-06-22T07:57:56;5.10;;;3.00;;
10162;SDS011;5123;52.556;13.384;2023-06-22T08:00:29;4.87;;;3.00;;
10162;SDS011;5123;52.556;13.384;2023-06-22T08:03:02;3.30;;;3.00;;
10162;SDS011;5123;52.556;13.384;2023-06-22T08:05:36;6.03;;;3.20;;
10162;SDS011;5123;52.556;13.384;2023-06-22T08:08:10;4.25;;;3.60;;
10162;SDS011;5123;52.556;13.384;2023-06-22T08:10:44;4.05;;;3.17;;
10162;SDS011;5123;52.556;13.384;2023-06-22T08:13:17;5.18;;;3.17;;
10162;SDS011;5123;52.556;13.384;2023-06-22T08:15:51;3.42;;;3.13;;
10162;SDS011;5123;52.556;13.384;2023-06-22T08:18:24;3.05;;;2.65;;
10162;SDS011;5123;52.556;13.384;2023-06-22T08:20:57;4.45;;;3.08;;
10162;SDS011;5123;52.556;13.384;2023-06-22T08:23:36;4.78;;;3.28;;
10162;SDS011;5123;52.556;13.384;2023-06-22T08:26:10;6.50;;;4.00;;
10162;SDS011;5123;52.556;13.384;2023-06-22T08:28:44;5.50;;;3.38;;
10162;SDS011;5123;52.556;13.384;2023-06-22T08:31:17;3.80;;;3.08;;
10162;SDS011;5123;52.556;13.384;2023-06-22T08:33:50;9.73;;;3.60;;
10162;SDS011;5123;52.556;13.384;2023-06-22T08:36:23;3.70;;;3.40;;
10162;SDS011;5123;52.556;13.384;2023-06-22T08:38:56;3.63;;;3.30;;
10162;SDS011;5123;52.556;13.384;2023-06-22T08:41:35;6.32;;;3.70;;
10162;SDS011;5123;52.556;13.384;2023-06-22T08:44:08;6.65;;;3.75;;
10162;SDS011;5123;52.556;13.384;2023-06-22T08:46:51;7.43;;;4.40;;
10162;SDS011;5123;52.556;13.384;2023-06-22T08:49:24;5.32;;;3.53;;
10162;SDS011;5123;52.556;13.384;2023-06-22T08:51:56;7.88;;;3.30;;
10162;SDS011;5123;52.556;13.384;2023-06-22T08:54:29;11.32;;;3.40;;
10162;SDS011;5123;52.556;13.384;2023-06-22T08:57:07;5.28;;;3.72;;
10162;SDS011;5123;52.556;13.384;2023-06-22T08:59:40;4.65;;;3.65;;
10162;SDS011;5123;52.556;13.384;2023-06-22T09:02:13;6.30;;;3.78;;
10162;SDS011;5123;52.556;13.384;2023-06-22T09:04:49;5.45;;;3.83;;
10162;SDS011;5123;52.556;13.384;2023-06-22T09:07:27;6.72;;;3.78;;
10162;SDS011;5123;52.556;13.384;2023-06-22T09:10:00;3.65;;;3.35;;
10162;SDS011;5123;52.556;13.384;2023-06-22T09:12:36;3.70;;;3.40;;
10162;SDS011;5123;52.556;13.384;2023-06-22T09:15:09;4.43;;;3.63;;
10162;SDS011;5123;52.556;13.384;2023-06-22T09:17:57;4.38;;;3.97;;
10162;SDS011;5123;52.556;13.384;2023-06-22T09:20:30;5.93;;;3.83;;
10162;SDS011;5123;52.556;13.384;2023-06-22T09:23:03;9.32;;;4.13;;
10162;SDS011;5123;52.556;13.384;2023-06-22T09:25:36;6.25;;;4.28;;
10162;SDS011;5123;52.556;13.384;2023-06-22T09:28:10;4.28;;;3.88;;
10162;SDS011;5123;52.556;13.384;2023-06-22T09:30:43;4.97;;;3.90;;
10162;SDS011;5123;52.556;13.384;2023-06-22T09:33:16;7.70;;;4.00;;
10162;SDS011;5123;52.556;13.384;2023-06-22T09:35:51;5.20;;;4.30;;
10162;SDS011;5123;52.556;13.384;2023-06-22T09:38:23;6.20;;;3.63;;
10162;SDS011;5123;52.556;13.384;2023-06-22T09:40:56;8.02;;;3.70;;
10162;SDS011;5123;52.556;13.384;2023-06-22T09:43:31;4.93;;;3.97;;
10162;SDS011;5123;52.556;13.384;2023-06-22T09:46:04;5.63;;;3.97;;
10162;SDS011;5123;52.556;13.384;2023-06-22T09:48:38;4.30;;;3.30;;
10162;SDS011;5123;52.556;13.384;2023-06-22T09:51:11;4.80;;;4.03;;
10162;SDS011;5123;52.556;13.384;2023-06-22T09:53:48;5.43;;;4.10;;
10162;SDS011;5123;52.556;13.384;2023-06-22T09:56:21;4.40;;;3.80;;
10162;SDS011;5123;52.556;13.384;2023-06-22T09:58:55;5.32;;;3.95;;
10162;SDS011;5123;52.556;13.384;2023-06-22T10:01:47;3.75;;;3.42;;
10162;SDS011;5123;52.556;13.384;2023-06-22T10:04:20;3.97;;;3.40;;
10162;SDS011;5123;52.556;13.384;2023-06-22T10:06:53;7.03;;;4.00;;
10162;SDS011;5123;52.556;13.384;2023-06-22T10:09:26;5.07;;;4.32;;
10162;SDS011;5123;52.556;13.384;2023-06-22T10:11:59;4.40;;;4.00;;
10162;SDS011;5123;52.556;13.384;2023-06-22T10:14:33;5.40;;;3.80;;
10162;SDS011;5123;52.556;13.384;2023-06-22T10:17:09;11.52;;;9.95;;
10162;SDS011;5123;52.556;13.384;2023-06-22T10:19:42;5.03;;;4.05;;
10162;SDS011;5123;52.556;13.384;2023-06-22T10:22:14;7.53;;;3.80;;
10162;SDS011;5123;52.556;13.384;2023-06-22T10:24:47;4.03;;;3.70;;
10162;SDS011;5123;52.556;13.384;2023-06-22T10:27:20;4.00;;;3.60;;
10162;SDS011;5123;52.556;13.384;2023-06-22T10:29:57;4.55;;;4.10;;
10162;SDS011;5123;52.556;13.384;2023-06-22T10:32:30;5.43;;;4.22;;
10162;SDS011;5123;52.556;13.384;2023-06-22T10:35:04;5.82;;;4.43;;
10162;SDS011;5123;52.556;13.384;2023-06-22T10:37:37;7.05;;;4.38;;
10162;SDS011;5123;52.556;13.384;2023-06-22T10:40:10;5.95;;;3.92;;
10162;SDS011;5123;52.556;13.384;2023-06-22T10:42:43;5.60;;;4.22;;
10162;SDS011;5123;52.556;13.384;2023-06-22T10:45:17;6.30;;;4.20;;
10162;SDS011;5123;52.556;13.384;2023-06-22T10:47:50;6.13;;;4.07;;
10162;SDS011;5123;52.556;13.384;2023-06-22T10:50:24;4.30;;;3.88;;
10162;SDS011;5123;52.556;13.384;2023-06-22T10:52:57;7.07;;;4.28;;
10162;SDS011;5123;52.556;13.384;2023-06-22T10:55:31;6.13;;;3.85;;
10162;SDS011;5123;52.556;13.384;2023-06-22T10:58:23;6.03;;;5.43;;
10162;SDS011;5123;52.556;13.384;2023-06-22T11:00:58;6.22;;;4.05;;
10162;SDS011;5123;52.556;13.384;2023-06-22T11:03:34;5.78;;;5.18;;
10162;SDS011;5123;52.556;13.384;2023-06-22T11:06:07;6.82;;;5.22;;
10162;SDS011;5123;52.556;13.384;2023-06-22T11:08:40;4.80;;;4.30;;
10162;SDS011;5123;52.556;13.384;2023-06-22T11:11:28;5.13;;;4.05;;
10162;SDS011;5123;52.556;13.384;2023-06-22T11:14:00;6.10;;;4.47;;
10162;SDS011;5123;52.556;13.384;2023-06-22T11:16:35;5.93;;;4.30;;
10162;SDS011;5123;52.556;13.384;2023-06-22T11:19:07;8.50;;;4.63;;
10162;SDS011;5123;52.556;13.384;2023-06-22T11:21:41;4.75;;;4.10;;
10162;SDS011;5123;52.556;13.384;2023-06-22T11:24:14;5.13;;;4.63;;
10162;SDS011;5123;52.556;13.384;2023-06-22T11:26:47;6.45;;;4.30;;
10162;SDS011;5123;52.556;13.384;2023-06-22T11:29:20;8.40;;;4.80;;
10162;SDS011;5123;52.556;13.384;2023-06-22T11:32:11;4.15;;;3.75;;
10162;SDS011;5123;52.556;13.384;2023-06-22T11:34:45;5.18;;;4.68;;
10162;SDS011;5123;52.556;13.384;2023-06-22T11:37:18;11.05;;;5.00;;
10162;SDS011;5123;52.556;13.384;2023-06-22T11:39:51;5.80;;;4.28;;
10162;SDS011;5123;52.556;13.384;2023-06-22T11:42:37;7.80;;;4.68;;
10162;SDS011;5123;52.556;13.384;2023-06-22T11:45:10;5.90;;;4.10;;
10162;SDS011;5123;52.556;13.384;2023-06-22T11:47:44;6.47;;;4.28;;
10162;SDS011;5123;52.556;13.384;2023-06-22T11:50:17;7.80;;;4.32;;
10162;SDS011;5123;52.556;13.384;2023-06-22T11:52:50;4.70;;;4.30;;
10162;SDS011;5123;52.556;13.384;2023-06-22T11:55:24;5.25;;;4.75;;
10162;SDS011;5123;52.556;13.384;2023-06-22T11:57:59;6.18;;;4.95;;
10162;SDS011;5123;52.556;13.384;2023-06-22T12:00:34;4.72;;;4.32;;
10162;SDS011;5123;52.556;13.384;2023-06-22T12:03:22;4.80;;;4.30;;
10162;SDS011;5123;52.556;13.384;2023-06-22T12:05:55;5.93;;;4.35;;
10162;SDS011;5123;52.556;13.384;2023-06-22T12:08:28;4.38;;;3.97;;
10162;SDS011;5123;52.556;13.384;2023-06-22T12:11:01;4.40;;;4.10;;
10162;SDS011;5123;52.556;13.384;2023-06-22T12:13:36;5.15;;;4.70;;
10162;SDS011;5123;52.556;13.384;2023-06-22T12:16:09;4.95;;;4.25;;
10162;SDS011;5123;52.556;13.384;2023-06-22T12:18:43;5.00;;;4.57;;
10162;SDS011;5123;52.556;13.384;2023-06-22T12:21:15;6.55;;;4.97;;
10162;SDS011;5123;52.556;13.384;2023-06-22T12:23:48;7.55;;;5.10;;
10162;SDS011;5123;52.556;13.384;2023-06-22T12:26:23;5.70;;;4.80;;
10162;SDS011;5123;52.556;13.384;2023-06-22T12:28:56;4.63;;;4.05;;
10162;SDS011;5123;52.556;13.384;2023-06-22T12:31:29;5.30;;;4.80;;
10162;SDS011;5123;52.556;13.384;2023-06-22T12:34:11;5.15;;;4.63;;
10162;SDS011;5123;52.556;13.384;2023-06-22T12:36:43;4.43;;;3.55;;
10162;SDS011;5123;52.556;13.384;2023-06-22T12:39:17;5.25;;;4.35;;
10162;SDS011;5123;52.556;13.384;2023-06-22T12:41:50;5.55;;;5.00;;
10162;SDS011;5123;52.556;13.384;2023-06-22T12:44:26;5.43;;;4.40;;
10162;SDS011;5123;52.556;13.384;2023-06-22T12:46:58;5.65;;;4.38;;
10162;SDS011;5123;52.556;13.384;2023-06-22T12:49:32;6.45;;;4.85;;
10162;SDS011;5123;52.556;13.384;2023-06-22T12:52:08;9.45;;;6.10;;
10162;SDS011;5123;52.556;13.384;2023-06-22T12:54:44;76.78;;;61.05;;
10162;SDS011;5123;52.556;13.384;2023-06-22T12:57:26;7.05;;;5.75;;
10162;SDS011;5123;52.556;13.384;2023-06-22T13:00:00;7.60;;;5.55;;
10162;SDS011;5123;52.556;13.384;2023-06-22T13:02:32;7.47;;;5.80;;
10162;SDS011;5123;52.556;13.384;2023-06-22T13:05:11;6.35;;;4.93;;
10162;SDS011;5123;52.556;13.384;2023-06-22T13:07:47;7.00;;;5.18;;
10162;SDS011;5123;52.556;13.384;2023-06-22T13:10:19;5.40;;;4.55;;
10162;SDS011;5123;52.556;13.384;2023-06-22T13:12:52;5.68;;;5.10;;
10162;SDS011;5123;52.556;13.384;2023-06-22T13:15:31;5.47;;;4.82;;
10162;SDS011;5123;52.556;13.384;2023-06-22T13:18:05;6.43;;;4.88;;
10162;SDS011;5123;52.556;13.384;2023-06-22T13:20:42;5.25;;;4.75;;
10162;SDS011;5123;52.556;13.384;2023-06-22T13:23:16;5.68;;;5.18;;
10162;SDS011;5123;52.556;13.384;2023-06-22T13:25:49;6.18;;;5.43;;
10162;SDS011;5123;52.556;13.384;2023-06-22T13:28:25;6.53;;;5.93;;
10162;SDS011;5123;52.556;13.384;2023-06-22T13:30:59;5.97;;;5.13;;
10162;SDS011;5123;52.556;13.384;2023-06-22T13:33:32;9.98;;;4.82;;
10162;SDS011;5123;52.556;13.384;2023-06-22T13:36:06;5.53;;;4.45;;
10162;SDS011;5123;52.556;13.384;2023-06-22T13:38:39;5.68;;;5.18;;
10162;SDS011;5123;52.556;13.384;2023-06-22T13:41:13;6.05;;;5.22;;
10162;SDS011;5123;52.556;13.384;2023-06-22T13:43:46;5.78;;;5.18;;
10162;SDS011;5123;52.556;13.384;2023-06-22T13:46:19;5.05;;;4.60;;
10162;SDS011;5123;52.556;13.384;2023-06-22T13:48:51;6.07;;;5.47;;
10162;SDS011;5123;52.556;13.384;2023-06-22T13:51:31;5.95;;;5.45;;
10162;SDS011;5123;52.556;13.384;2023-06-22T13:54:04;5.75;;;5.25;;
10162;SDS011;5123;52.556;13.384;2023-06-22T13:56:42;5.45;;;5.00;;
10162;SDS011;5123;52.556;13.384;2023-06-22T13:59:18;10.25;;;5.75;;
10162;SDS011;5123;52.556;13.384;2023-06-22T14:01:58;5.60;;;5.10;;
10162;SDS011;5123;52.556;13.384;2023-06-22T14:05:08;6.13;;;4.65;;
10162;SDS011;5123;52.556;13.384;2023-06-22T14:07:43;5.97;;;5.47;;
10162;SDS011;5123;52.556;13.384;2023-06-22T14:10:16;8.40;;;5.70;;
10162;SDS011;5123;52.556;13.384;2023-06-22T14:12:49;6.70;;;5.88;;
10162;SDS011;5123;52.556;13.384;2023-06-22T14:15:22;8.02;;;5.68;;
10162;SDS011;5123;52.556;13.384;2023-06-22T14:17:55;6.20;;;5.25;;
10162;SDS011;5123;52.556;13.384;2023-06-22T14:20:28;6.30;;;5.70;;
10162;SDS011;5123;52.556;13.384;2023-06-22T14:23:05;6.13;;;5.57;;
10162;SDS011;5123;52.556;13.384;2023-06-22T14:25:38;5.55;;;5.07;;
10162;SDS011;5123;52.556;13.384;2023-06-22T14:28:11;5.80;;;5.30;;
10162;SDS011;5123;52.556;13.384;2023-06-22T14:30:44;6.05;;;5.40;;
10162;SDS011;5123;52.556;13.384;2023-06-22T14:33:17;5.85;;;5.25;;
10162;SDS011;5123;52.556;13.384;2023-06-22T14:35:50;7.38;;;5.57;;
10162;SDS011;5123;52.556;13.384;2023-06-22T14:38:24;5.63;;;5.13;;
10162;SDS011;5123;52.556;13.384;2023-06-22T14:40:56;7.50;;;5.43;;
10162;SDS011;5123;52.556;13.384;2023-06-22T14:43:45;6.32;;;5.75;;
10162;SDS011;5123;52.556;13.384;2023-06-22T14:46:21;5.93;;;5.43;;
10162;SDS011;5123;52.556;13.384;2023-06-22T14:48:54;5.63;;;5.22;;
10162;SDS011;5123;52.556;13.384;2023-06-22T14:51:27;5.70;;;5.20;;
10162;SDS011;5123;52.556;13.384;2023-06-22T14:54:04;6.65;;;6.05;;
10162;SDS011;5123;52.556;13.384;2023-06-22T14:56:37;6.30;;;5.70;;
10162;SDS011;5123;52.556;13.384;2023-06-22T14:59:10;5.88;;;5.38;;
10162;SDS011;5123;52.556;13.384;2023-06-22T15:01:43;6.25;;;5.65;;
10162;SDS011;5123;52.556;13.384;2023-06-22T15:04:18;7.03;;;5.40;;
10162;SDS011;5123;52.556;13.384;2023-06-22T15:06:52;6.20;;;5.60;;
10162;SDS011;5123;52.556;13.384;2023-06-22T15:09:26;5.82;;;5.13;;
10162;SDS011;5123;52.556;13.384;2023-06-22T15:12:00;6.72;;;5.63;;
10162;SDS011;5123;52.556;13.384;2023-06-22T15:14:37;6.22;;;5.72;;
10162;SDS011;5123;52.556;13.384;2023-06-22T15:17:10;6.68;;;6.15;;
10162;SDS011;5123;52.556;13.384;2023-06-22T15:19:45;5.97;;;5.40;;
10162;SDS011;5123;52.556;13.384;2023-06-22T15:22:18;6.38;;;5.78;;